Time;durP1;ratioP1;P1;durP2;ratioP2;P2;SDS_P1;SDS_P2;PMS_P1;PMS_P2;Temp;Humidity;BMP_temperature;BMP_pressure;BME280_temperature;BME280_humidity;BME280_pressure;Samples;Min_cycle;Max_cycle;Signal;HPM_P1;HPM_P2
2022/04/23 00:02:01;;;;;;;9.80;5.55;;;11.00;99.90;;;;;;5114718;28;20047;-75
2022/04/23 00:04:30;;;;;;;14.13;5.15;;;11.00;99.90;;;;;;5116197;28;20386;-75
2022/04/23 00:06:59;;;;;;;12.18;5.53;;;10.90;99.90;;;;;;5115754;28;20046;-76
2022/04/23 00:09:25;;;;;;;10.15;5.40;;;10.90;99.90;;;;;;5115062;28;20073;-75
2022/04/23 00:11:55;;;;;;;12.73;6.93;;;10.90;99.90;;;;;;5116413;28;20498;-75
2022/04/23 00:14:21;;;;;;;14.50;6.20;;;10.80;99.90;;;;;;5115727;28;20067;-75
2022/04/23 00:16:50;;;;;;;10.00;6.45;;;10.80;99.90;;;;;;5115814;28;20050;-76
2022/04/23 00:19:19;;;;;;;10.57;6.00;;;10.80;99.90;;;;;;5115547;28;20039;-76
2022/04/23 00:21:45;;;;;;;10.02;5.60;;;10.70;99.90;;;;;;5114708;28;20082;-76
2022/04/23 00:24:11;;;;;;;11.60;6.95;;;10.70;99.90;;;;;;5116615;28;20437;-76
2022/04/23 00:26:37;;;;;;;11.60;7.13;;;10.60;99.90;;;;;;5098075;28;20150;-76
2022/04/23 00:29:03;;;;;;;16.30;7.65;;;10.60;99.90;;;;;;5115910;28;20353;-76
2022/04/23 00:31:29;;;;;;;13.93;8.43;;;10.60;99.90;;;;;;5115069;28;20588;-76
2022/04/23 00:33:55;;;;;;;13.70;8.10;;;10.60;99.90;;;;;;5098526;28;20046;-76
2022/04/23 00:36:23;;;;;;;13.32;7.57;;;10.50;99.90;;;;;;5115461;28;20402;-76
2022/04/23 00:38:52;;;;;;;12.27;8.35;;;10.50;99.90;;;;;;5115129;28;20049;-76
2022/04/23 00:44:03;;;;;;;10.55;8.18;;;10.50;99.90;;;;;;5115424;28;20490;-76
2022/04/23 00:46:29;;;;;;;17.30;7.40;;;10.50;99.90;;;;;;5114629;28;20062;-76
2022/04/23 00:48:55;;;;;;;9.40;7.95;;;10.40;99.90;;;;;;5114876;28;20432;-76
2022/04/23 00:51:21;;;;;;;11.63;8.45;;;10.40;99.90;;;;;;5113607;28;20147;-76
2022/04/23 00:53:49;;;;;;;13.43;8.07;;;10.50;99.90;;;;;;5116287;28;20166;-76
2022/04/23 00:56:17;;;;;;;10.18;7.38;;;10.50;99.90;;;;;;5115896;28;20040;-76
2022/04/23 00:58:43;;;;;;;16.75;7.50;;;10.50;99.90;;;;;;5113869;28;20507;-76
2022/04/23 01:01:09;;;;;;;12.13;7.20;;;10.50;99.90;;;;;;5114319;28;20123;-76
2022/04/23 01:03:36;;;;;;;13.18;6.60;;;10.60;99.90;;;;;;5114904;28;20101;-76
2022/04/23 01:06:02;;;;;;;10.10;7.47;;;10.60;99.90;;;;;;5114829;28;20079;-76
2022/04/23 01:08:28;;;;;;;10.48;6.80;;;10.50;99.90;;;;;;5114482;28;20397;-76
2022/04/23 01:10:54;;;;;;;13.10;7.75;;;10.50;99.90;;;;;;5114640;28;20040;-76
2022/04/23 01:13:19;;;;;;;13.98;7.05;;;10.50;99.90;;;;;;5113700;28;20044;-76
2022/04/23 01:16:04;;;;;;;11.75;7.03;;;10.50;99.90;;;;;;5113844;28;20073;-76
2022/04/23 01:18:31;;;;;;;11.68;7.00;;;10.50;99.90;;;;;;5114486;28;20077;-76
2022/04/23 01:20:57;;;;;;;10.23;7.00;;;10.40;99.90;;;;;;5114365;28;20043;-76
2022/04/23 01:23:24;;;;;;;12.07;6.50;;;10.40;99.90;;;;;;5114413;28;20398;-76
2022/04/23 01:25:53;;;;;;;10.55;7.03;;;10.40;99.90;;;;;;5114300;28;20542;-76
2022/04/23 01:28:23;;;;;;;12.65;6.80;;;10.30;99.90;;;;;;5115303;28;20097;-76
2022/04/23 01:30:53;;;;;;;13.75;7.18;;;10.30;99.90;;;;;;5114211;28;20040;-76
2022/04/23 01:33:19;;;;;;;12.57;7.28;;;10.30;99.90;;;;;;5112995;28;20566;-76
2022/04/23 01:35:45;;;;;;;12.20;7.60;;;10.20;99.90;;;;;;5114110;28;20453;-76
2022/04/23 01:38:13;;;;;;;11.88;6.97;;;10.20;99.90;;;;;;5114767;28;20123;-76
2022/04/23 01:40:39;;;;;;;16.83;8.05;;;10.20;99.90;;;;;;5113170;28;20146;-76
2022/04/23 01:43:05;;;;;;;12.23;7.43;;;10.10;99.90;;;;;;5113794;28;20050;-76
2022/04/23 01:45:31;;;;;;;10.43;7.03;;;10.10;99.90;;;;;;5115039;28;20048;-76
2022/04/23 01:47:57;;;;;;;11.27;7.57;;;10.10;99.90;;;;;;5112688;28;20039;-76
2022/04/23 01:50:23;;;;;;;18.00;8.07;;;10.10;99.90;;;;;;5114900;28;20044;-77
2022/04/23 01:52:49;;;;;;;15.10;7.13;;;10.00;99.90;;;;;;5112679;28;20036;-76
2022/04/23 01:55:15;;;;;;;16.27;7.68;;;10.00;99.90;;;;;;5112775;28;20054;-76
2022/04/23 01:57:41;;;;;;;13.10;7.60;;;9.90;99.90;;;;;;5114765;28;20038;-77
2022/04/23 02:00:10;;;;;;;14.75;8.35;;;9.90;99.90;;;;;;5114896;28;20494;-77
2022/04/23 02:02:38;;;;;;;17.60;8.45;;;9.90;99.90;;;;;;5113143;28;20051;-76
2022/04/23 02:05:05;;;;;;;18.17;8.68;;;9.90;99.90;;;;;;5113636;28;20051;-76
2022/04/23 02:07:38;;;;;;;14.00;8.13;;;9.90;99.90;;;;;;5094843;28;20596;-76
2022/04/23 02:10:09;;;;;;;18.48;8.88;;;9.90;99.90;;;;;;5113437;28;20047;-76
2022/04/23 02:12:35;;;;;;;13.68;8.05;;;9.90;99.90;;;;;;5113145;28;20047;-76
2022/04/23 02:15:01;;;;;;;12.77;8.00;;;9.80;99.90;;;;;;5112500;28;20050;-75
2022/04/23 02:17:53;;;;;;;15.10;8.35;;;9.80;99.90;;;;;;5112946;28;20474;-77
2022/04/23 02:20:20;;;;;;;16.13;8.00;;;9.80;99.90;;;;;;5109411;28;20506;-76
2022/04/23 02:22:46;;;;;;;10.55;7.82;;;9.80;99.90;;;;;;5113516;28;20044;-76
2022/04/23 02:25:12;;;;;;;13.15;8.27;;;9.80;99.90;;;;;;5114056;28;20514;-76
2022/04/23 02:27:46;;;;;;;12.93;8.98;;;9.80;99.90;;;;;;5113512;28;20043;-77
2022/04/23 02:30:16;;;;;;;18.23;9.02;;;9.80;99.90;;;;;;5113062;28;20039;-76
2022/04/23 02:32:43;;;;;;;15.05;9.27;;;9.70;99.90;;;;;;5113096;28;20487;-76
2022/04/23 02:35:10;;;;;;;14.32;8.80;;;9.70;99.90;;;;;;5114086;28;20047;-76
2022/04/23 02:37:36;;;;;;;13.88;8.55;;;9.70;99.90;;;;;;5112161;28;20474;-76
2022/04/23 02:40:04;;;;;;;18.23;9.07;;;9.70;99.90;;;;;;5112701;28;20043;-76
2022/04/23 02:42:30;;;;;;;13.15;7.90;;;9.70;99.90;;;;;;5095583;28;20142;-76
2022/04/23 02:45:03;;;;;;;12.45;8.32;;;9.70;99.90;;;;;;5113221;28;20044;-74
2022/04/23 02:47:58;;;;;;;15.65;10.27;;;9.70;99.90;;;;;;5092441;28;20518;-76
2022/04/23 02:50:31;;;;;;;;;;;9.70;99.90;;;;;;5094840;28;20070;-77
2022/04/23 02:52:58;;;;;;;16.20;9.55;;;9.70;99.90;;;;;;5095928;28;19919;-76
2022/04/23 02:55:25;;;;;;;13.68;9.15;;;9.60;99.90;;;;;;5095585;28;20035;-76
2022/04/23 02:57:52;;;;;;;16.75;8.50;;;9.60;99.90;;;;;;5112085;28;20059;-76
2022/04/23 03:00:18;;;;;;;17.83;9.48;;;9.60;99.90;;;;;;5112506;28;20079;-76
2022/04/23 03:02:44;;;;;;;16.00;9.13;;;9.60;99.90;;;;;;5112941;28;20076;-77
2022/04/23 03:05:12;;;;;;;13.18;10.23;;;9.60;99.90;;;;;;5119357;28;20525;-76
2022/04/23 03:07:39;;;;;;;13.18;8.60;;;9.60;99.90;;;;;;5119753;28;20118;-76
2022/04/23 03:10:06;;;;;;;16.35;10.90;;;9.50;99.90;;;;;;5120310;27;20491;-76
2022/04/23 03:12:32;;;;;;;15.00;9.43;;;9.50;99.90;;;;;;5118565;28;20040;-76
2022/04/23 03:14:58;;;;;;;12.50;9.20;;;9.50;99.90;;;;;;5120369;28;20089;-76
2022/04/23 03:17:24;;;;;;;13.25;9.38;;;9.50;99.90;;;;;;5136507;27;20552;-76
2022/04/23 03:19:50;;;;;;;16.38;9.13;;;9.50;99.90;;;;;;5118185;28;20043;-76
2022/04/23 03:22:17;;;;;;;14.10;9.68;;;9.50;99.90;;;;;;5119461;28;20043;-76
2022/04/23 03:24:44;;;;;;;12.13;8.90;;;9.50;99.90;;;;;;5118146;28;20050;-76
2022/04/23 03:27:10;;;;;;;17.40;9.48;;;9.50;99.90;;;;;;5119052;28;20039;-76
2022/04/23 03:29:36;;;;;;;13.45;9.73;;;9.40;99.90;;;;;;5119241;28;20051;-76
2022/04/23 03:32:02;;;;;;;15.93;9.73;;;9.40;99.90;;;;;;5119749;28;20028;-76
2022/04/23 03:34:27;;;;;;;17.05;9.30;;;9.40;99.90;;;;;;5119161;28;20062;-76
2022/04/23 03:36:56;;;;;;;13.65;9.38;;;9.40;99.90;;;;;;5119856;28;20095;-75
2022/04/23 03:39:22;;;;;;;17.73;10.35;;;9.40;99.90;;;;;;5119651;28;20433;-76
2022/04/23 03:41:48;;;;;;;18.35;10.07;;;9.40;99.90;;;;;;5101814;28;20051;-76
2022/04/23 03:44:13;;;;;;;13.52;8.55;;;9.40;99.90;;;;;;5120091;28;20036;-76
2022/04/23 03:46:40;;;;;;;16.48;8.80;;;9.30;99.90;;;;;;5100999;28;20039;-76
2022/04/23 03:49:08;;;;;;;14.65;10.18;;;9.30;99.90;;;;;;5120103;27;20040;-76
2022/04/23 03:51:34;;;;;;;11.85;9.45;;;9.40;99.90;;;;;;5135838;27;20141;-77
2022/04/23 03:54:01;;;;;;;16.88;10.25;;;9.30;99.90;;;;;;5118183;28;20374;-76
2022/04/23 03:56:27;;;;;;;17.15;9.68;;;9.30;99.90;;;;;;5119031;28;20047;-76
2022/04/23 03:58:53;;;;;;;12.27;9.23;;;9.30;99.90;;;;;;5119826;27;20043;-76
2022/04/23 04:01:19;;;;;;;12.45;9.00;;;9.30;99.90;;;;;;5118253;28;20083;-77
2022/04/23 04:03:45;;;;;;;13.63;9.35;;;9.30;99.90;;;;;;5084715;28;20082;-77
2022/04/23 04:06:11;;;;;;;13.45;9.55;;;9.30;99.90;;;;;;5120689;28;20067;-76
2022/04/23 04:08:37;;;;;;;13.30;9.40;;;9.30;99.90;;;;;;5119288;27;20043;-76
2022/04/23 04:11:02;;;;;;;11.70;8.77;;;9.30;99.90;;;;;;5118311;28;20074;-76
2022/04/23 04:13:28;;;;;;;16.67;9.48;;;9.20;99.90;;;;;;5124810;27;20127;-76
2022/04/23 04:15:55;;;;;;;14.98;9.02;;;9.20;99.90;;;;;;5095838;28;20040;-76
2022/04/23 04:18:22;;;;;;;10.85;8.82;;;9.20;99.90;;;;;;5106110;28;20036;-76
2022/04/23 04:20:49;;;;;;;12.77;8.73;;;9.20;99.90;;;;;;5116830;28;20048;-76
2022/04/23 04:23:15;;;;;;;14.95;9.15;;;9.20;99.90;;;;;;5114925;28;20592;-76
2022/04/23 04:25:42;;;;;;;12.65;9.13;;;9.20;99.90;;;;;;5115675;28;20051;-76
2022/04/23 04:28:09;;;;;;;11.60;8.57;;;9.20;99.90;;;;;;5114516;28;20394;-76
2022/04/23 04:33:20;;;;;;;12.00;8.90;;;9.20;99.90;;;;;;5115036;28;20044;-77
2022/04/23 04:35:45;;;;;;;13.55;9.20;;;9.10;99.90;;;;;;5115892;28;20448;-76
2022/04/23 04:38:11;;;;;;;14.68;9.13;;;9.10;99.90;;;;;;5114981;28;20036;-76
2022/04/23 04:40:37;;;;;;;10.65;8.10;;;9.20;99.90;;;;;;5115019;28;20100;-76
2022/04/23 04:43:04;;;;;;;10.80;7.97;;;9.20;99.90;;;;;;5115234;28;20043;-76
2022/04/23 04:45:30;;;;;;;16.70;8.98;;;9.20;99.90;;;;;;5116417;28;20183;-76
2022/04/23 04:47:56;;;;;;;16.27;8.02;;;9.10;99.90;;;;;;5114964;28;20075;-76
2022/04/23 04:50:23;;;;;;;11.55;8.10;;;9.10;99.90;;;;;;5115428;28;20036;-77
2022/04/23 04:52:49;;;;;;;11.38;9.20;;;9.10;99.90;;;;;;5116045;28;20048;-76
2022/04/23 04:55:15;;;;;;;9.30;7.72;;;9.10;99.90;;;;;;5114892;28;20153;-78
2022/04/23 04:57:41;;;;;;;9.80;8.57;;;9.20;99.90;;;;;;5115178;28;20130;-76
2022/04/23 05:00:08;;;;;;;12.45;9.00;;;9.20;99.90;;;;;;5114956;28;20111;-77
2022/04/23 05:02:33;;;;;;;11.20;8.48;;;9.20;99.90;;;;;;5114445;28;20047;-77
2022/04/23 05:04:59;;;;;;;12.25;8.55;;;9.20;99.90;;;;;;5130967;27;20044;-76
2022/04/23 05:07:25;;;;;;;12.57;7.68;;;9.20;99.90;;;;;;5114249;28;20096;-76
2022/04/23 05:09:51;;;;;;;12.07;8.35;;;9.20;99.90;;;;;;5114485;28;20047;-76
2022/04/23 05:12:16;;;;;;;9.68;8.10;;;9.20;99.90;;;;;;5113357;28;20097;-76
2022/04/23 05:14:42;;;;;;;11.75;8.30;;;9.30;99.90;;;;;;5080740;28;20043;-76
2022/04/23 05:17:08;;;;;;;11.98;7.63;;;9.20;99.90;;;;;;5113282;28;20032;-75
2022/04/23 05:19:34;;;;;;;10.68;8.20;;;9.30;99.90;;;;;;5115736;28;20044;-76
2022/04/23 05:22:00;;;;;;;9.13;8.23;;;9.30;99.90;;;;;;5115382;28;20079;-75
2022/04/23 05:24:26;;;;;;;10.40;8.70;;;9.30;99.90;;;;;;5114797;28;20087;-75
2022/04/23 05:26:52;;;;;;;11.35;7.68;;;9.40;99.90;;;;;;5114071;28;20035;-78
2022/04/23 05:29:17;;;;;;;9.65;8.65;;;9.40;99.90;;;;;;5097164;28;20075;-78
2022/04/23 05:31:43;;;;;;;14.30;8.55;;;9.40;99.90;;;;;;5113442;28;20047;-76
2022/04/23 05:34:09;;;;;;;12.13;8.48;;;9.50;99.90;;;;;;5097425;28;20486;-76
2022/04/23 05:36:35;;;;;;;9.00;8.10;;;9.50;99.90;;;;;;5113760;28;20048;-76
2022/04/23 05:39:00;;;;;;;8.32;7.32;;;9.50;99.90;;;;;;5114350;28;20043;-77
2022/04/23 05:41:26;;;;;;;11.48;8.10;;;9.60;99.90;;;;;;5114993;28;20118;-76
2022/04/23 05:43:52;;;;;;;11.95;8.07;;;9.60;99.90;;;;;;5115083;28;20489;-76
2022/04/23 05:46:18;;;;;;;14.50;8.60;;;9.60;99.90;;;;;;5113934;28;20031;-76
2022/04/23 05:48:44;;;;;;;11.80;8.40;;;9.70;99.90;;;;;;5114061;28;20075;-77
2022/04/23 05:51:10;;;;;;;10.25;8.45;;;9.80;99.90;;;;;;5114500;28;20123;-75
2022/04/23 05:53:36;;;;;;;10.95;7.85;;;9.80;99.90;;;;;;5113147;28;20169;-76
2022/04/23 05:56:02;;;;;;;10.73;8.32;;;9.90;99.90;;;;;;5114617;28;20513;-75
2022/04/23 05:58:28;;;;;;;9.82;7.80;;;9.90;99.90;;;;;;5096578;28;20058;-77
2022/04/23 06:00:54;;;;;;;12.88;8.88;;;10.00;99.90;;;;;;5112688;28;20112;-75
2022/04/23 06:03:20;;;;;;;11.20;8.70;;;10.10;99.90;;;;;;5114427;28;20057;-76
2022/04/23 06:05:46;;;;;;;10.00;8.23;;;10.10;99.90;;;;;;5114932;28;20047;-75
2022/04/23 06:08:12;;;;;;;11.52;7.50;;;10.20;99.90;;;;;;5098455;28;20101;-76
2022/04/23 06:10:38;;;;;;;13.30;8.95;;;10.20;99.90;;;;;;5094359;28;20556;-76
2022/04/23 06:13:06;;;;;;;10.25;7.72;;;10.20;99.90;;;;;;5106768;28;20071;-76
2022/04/23 06:15:32;;;;;;;10.68;8.07;;;10.30;99.90;;;;;;5095481;28;20138;-76
2022/04/23 06:17:58;;;;;;;10.35;8.05;;;10.40;99.90;;;;;;5114445;28;20044;-76
2022/04/23 06:20:24;;;;;;;10.75;7.82;;;10.40;99.90;;;;;;5113822;28;20100;-75
2022/04/23 06:22:50;;;;;;;11.18;8.23;;;10.50;99.90;;;;;;5113945;28;20040;-77
2022/04/23 06:25:16;;;;;;;12.52;7.80;;;10.60;99.90;;;;;;5114456;28;20050;-76
2022/04/23 06:27:41;;;;;;;11.93;8.35;;;10.60;99.90;;;;;;5113302;28;20036;-75
2022/04/23 06:30:10;;;;;;;9.80;7.93;;;10.60;99.90;;;;;;5113008;28;20043;-75
2022/04/23 06:32:37;;;;;;;10.63;7.93;;;10.70;99.90;;;;;;5096517;28;20044;-76
2022/04/23 06:35:03;;;;;;;10.55;7.40;;;10.80;99.90;;;;;;5113570;28;20044;-76
2022/04/23 06:37:29;;;;;;;8.13;7.03;;;10.80;99.90;;;;;;5114146;27;20054;-77
2022/04/23 06:39:55;;;;;;;9.68;8.20;;;10.90;99.90;;;;;;5113633;28;20490;-77
2022/04/23 06:42:21;;;;;;;11.02;8.15;;;10.90;99.90;;;;;;5114460;27;20048;-75
2022/04/23 06:44:48;;;;;;;10.05;8.18;;;10.90;99.90;;;;;;5109728;28;20392;-76
2022/04/23 06:47:16;;;;;;;9.63;7.40;;;11.00;99.90;;;;;;5106748;28;20031;-76
2022/04/23 06:49:42;;;;;;;14.65;7.20;;;11.00;99.90;;;;;;5113277;28;20042;-76
2022/04/23 06:52:08;;;;;;;13.15;8.10;;;11.10;99.90;;;;;;5111674;28;20047;-76
2022/04/23 06:54:34;;;;;;;11.48;8.43;;;11.20;99.90;;;;;;5112668;28;20104;-75
2022/04/23 06:56:59;;;;;;;11.60;8.15;;;11.20;99.90;;;;;;5113151;28;20058;-76
2022/04/23 06:59:26;;;;;;;9.85;7.72;;;11.30;99.90;;;;;;5111926;28;20109;-76
2022/04/23 07:01:52;;;;;;;11.27;8.55;;;11.30;99.90;;;;;;5113883;28;20043;-76
2022/04/23 07:04:18;;;;;;;9.02;7.78;;;11.40;99.90;;;;;;5111713;28;20034;-76
2022/04/23 07:06:43;;;;;;;10.50;8.27;;;11.40;99.90;;;;;;5113970;28;20044;-76
2022/04/23 07:09:11;;;;;;;12.40;8.13;;;11.40;99.90;;;;;;5112709;28;20044;-77
2022/04/23 07:11:38;;;;;;;11.95;7.72;;;11.50;99.90;;;;;;5112886;28;20479;-76
2022/04/23 07:14:03;;;;;;;11.38;8.50;;;11.60;99.90;;;;;;5113548;28;20028;-76
2022/04/23 07:16:29;;;;;;;10.30;8.35;;;11.60;99.90;;;;;;5113220;28;20553;-76
2022/04/23 07:18:55;;;;;;;10.48;8.10;;;11.70;99.90;;;;;;5111516;28;20051;-76
2022/04/23 07:21:21;;;;;;;11.00;8.18;;;11.70;99.90;;;;;;5112652;28;20047;-75
2022/04/23 07:24:06;;;;;;;9.65;8.38;;;11.70;99.90;;;;;;5112847;28;20379;-75
2022/04/23 07:26:34;;;;;;;8.77;7.80;;;11.80;99.90;;;;;;5113654;28;20054;-76
2022/04/23 07:29:07;;;;;;;10.65;8.25;;;11.90;99.90;;;;;;5112710;28;20554;-77
2022/04/23 07:31:33;;;;;;;10.20;7.32;;;12.00;99.90;;;;;;5112961;28;20047;-75
2022/04/23 07:39:28;;;;;;;10.20;8.48;;;12.10;99.90;;;;;;5112425;28;20400;-76
2022/04/23 07:41:54;;;;;;;11.13;8.45;;;12.10;99.90;;;;;;5111552;28;20119;-77
2022/04/23 07:44:22;;;;;;;11.10;8.77;;;12.20;99.90;;;;;;5112883;28;20047;-76
2022/04/23 07:46:48;;;;;;;9.38;7.70;;;12.30;99.90;;;;;;5110241;28;20043;-76
2022/04/23 07:49:14;;;;;;;13.40;8.68;;;12.30;99.90;;;;;;5111069;28;20046;-77
2022/04/23 07:51:42;;;;;;;9.35;7.60;;;12.30;99.90;;;;;;5113975;28;20047;-77
2022/04/23 07:54:08;;;;;;;9.25;7.38;;;12.40;99.90;;;;;;5114860;28;20402;-78
2022/04/23 07:56:35;;;;;;;12.02;8.27;;;12.50;99.90;;;;;;5115747;28;20051;-76
2022/04/23 07:59:02;;;;;;;12.68;8.25;;;12.50;99.90;;;;;;5116051;28;20060;-76
2022/04/23 08:01:28;;;;;;;14.63;8.13;;;12.60;99.90;;;;;;5114669;28;20043;-76
2022/04/23 08:03:54;;;;;;;9.00;5.60;;;12.70;99.90;;;;;;5111477;28;20773;-77
2022/04/23 08:06:20;;;;;;;9.05;8.00;;;12.70;99.90;;;;;;5115795;27;20109;-75
2022/04/23 08:08:46;;;;;;;10.15;7.18;;;12.80;99.90;;;;;;5116389;28;20044;-76
2022/04/23 08:11:12;;;;;;;8.98;6.78;;;12.80;99.90;;;;;;5116226;28;20047;-76
2022/04/23 08:13:37;;;;;;;11.13;7.85;;;12.90;99.90;;;;;;5115446;28;20032;-76
2022/04/23 08:16:05;;;;;;;14.68;7.38;;;13.00;99.90;;;;;;5114797;28;20047;-76
2022/04/23 08:18:30;;;;;;;10.35;7.30;;;13.00;99.90;;;;;;5114803;28;20043;-77
2022/04/23 08:20:56;;;;;;;8.60;7.28;;;13.00;99.90;;;;;;5115776;28;20044;-76
2022/04/23 08:23:23;;;;;;;12.48;8.23;;;13.10;99.90;;;;;;5114944;28;20470;-76
2022/04/23 08:25:48;;;;;;;8.88;7.85;;;13.10;99.90;;;;;;5114866;28;20043;-77
2022/04/23 08:31:01;;;;;;;9.63;7.35;;;13.30;99.90;;;;;;5114213;28;20047;-74
2022/04/23 08:33:57;;;;;;;10.57;8.27;;;13.30;99.90;;;;;;5116665;28;20043;-75
2022/04/23 08:36:13;;;;;;;9.25;7.68;;;13.40;99.90;;;;;;5113159;28;20110;-76
2022/04/23 08:38:38;;;;;;;21.63;7.32;;;13.50;99.90;;;;;;5115333;28;20088;-75
2022/04/23 08:41:06;;;;;;;13.30;7.47;;;13.60;99.90;;;;;;5114410;28;20079;-75
2022/04/23 08:43:32;;;;;;;13.40;6.85;;;13.60;99.90;;;;;;5116315;28;20052;-75
2022/04/23 08:46:02;;;;;;;17.02;7.60;;;13.80;99.90;;;;;;5116264;28;20040;-75
2022/04/23 08:48:36;;;;;;;16.95;7.03;;;13.90;99.90;;;;;;5115645;28;20048;-75
2022/04/23 08:51:03;;;;;;;9.80;6.45;;;14.00;99.90;;;;;;5113784;28;20047;-75
2022/04/23 08:53:31;;;;;;;8.57;6.90;;;14.00;99.90;;;;;;5098441;28;20046;-75
2022/04/23 08:55:57;;;;;;;10.30;6.35;;;14.00;99.90;;;;;;5113577;28;20127;-77
2022/04/23 08:58:24;;;;;;;11.73;6.57;;;14.00;99.90;;;;;;5116042;27;20449;-75
2022/04/23 09:00:50;;;;;;;9.63;6.43;;;14.00;99.90;;;;;;5114266;28;20054;-76
2022/04/23 09:03:16;;;;;;;7.85;6.78;;;14.00;99.90;;;;;;5113811;28;20394;-76
2022/04/23 09:05:43;;;;;;;8.30;7.13;;;14.10;99.90;;;;;;5114192;28;20050;-76
2022/04/23 09:08:10;;;;;;;9.20;6.47;;;14.10;99.90;;;;;;5097503;28;20047;-76
2022/04/23 09:10:51;;;;;;;12.07;7.40;;;14.20;99.90;;;;;;5114313;28;20126;-75
2022/04/23 09:13:28;;;;;;;11.88;7.40;;;14.20;99.90;;;;;;5115907;28;20043;-75
2022/04/23 09:24:18;;;;;;;17.17;7.15;;;14.40;99.90;;;;;;5114728;28;20043;-75
2022/04/23 09:27:02;;;;;;;12.70;8.02;;;14.40;99.20;;;;;;5114163;28;20048;-76
2022/04/23 09:29:30;;;;;;;11.85;8.63;;;14.50;98.00;;;;;;5114097;28;20134;-77
2022/04/23 09:32:11;;;;;;;13.43;7.75;;;14.50;99.00;;;;;;5113447;28;20131;-74
2022/04/23 09:34:38;;;;;;;11.48;7.20;;;14.60;98.20;;;;;;5097167;28;20047;-76
2022/04/23 09:37:05;;;;;;;12.20;6.75;;;14.70;98.40;;;;;;5103242;28;20529;-77
2022/04/23 09:39:34;;;;;;;15.30;7.30;;;14.80;98.30;;;;;;5102560;27;20118;-76
2022/04/23 09:42:17;;;;;;;18.63;7.57;;;14.90;98.20;;;;;;5127275;27;20099;-77
2022/04/23 09:44:44;;;;;;;9.30;7.60;;;15.10;99.00;;;;;;5114528;28;20159;-78
2022/04/23 09:47:11;;;;;;;16.67;7.55;;;15.10;98.10;;;;;;5115326;28;20054;-76
2022/04/23 09:49:38;;;;;;;12.48;7.60;;;15.20;97.70;;;;;;5097076;28;20126;-76
2022/04/23 09:52:09;;;;;;;10.38;6.90;;;15.30;96.90;;;;;;5095927;28;20134;-77
2022/04/23 09:54:37;;;;;;;11.23;7.15;;;15.30;96.50;;;;;;5113982;28;20043;-76
2022/04/23 09:57:03;;;;;;;8.88;6.30;;;15.30;95.80;;;;;;5113907;28;20082;-74
2022/04/23 09:59:30;;;;;;;10.90;6.03;;;15.40;96.10;;;;;;5114021;28;20036;-75
2022/04/23 10:01:56;;;;;;;8.20;6.63;;;15.50;95.40;;;;;;5113806;28;20044;-77
2022/04/23 10:04:30;;;;;;;11.68;7.20;;;15.60;95.30;;;;;;5114722;28;20039;-77
2022/04/23 10:06:56;;;;;;;10.85;6.72;;;15.80;95.30;;;;;;5114433;28;20050;-77
2022/04/23 10:09:27;;;;;;;11.20;6.63;;;15.90;95.00;;;;;;5114629;28;20043;-77
2022/04/23 10:12:08;;;;;;;10.27;7.00;;;16.10;94.90;;;;;;5114685;28;20126;-77
2022/04/23 10:14:40;;;;;;;10.18;7.38;;;16.20;94.60;;;;;;5111909;28;20043;-76
2022/04/23 10:17:09;;;;;;;13.02;7.55;;;16.30;93.90;;;;;;5113820;28;20126;-77
2022/04/23 10:19:35;;;;;;;10.45;8.40;;;16.40;93.50;;;;;;5105191;28;20040;-76
2022/04/23 10:22:12;;;;;;;11.05;7.13;;;16.50;93.60;;;;;;5102144;28;20032;-77
2022/04/23 10:24:52;;;;;;;11.85;6.75;;;16.50;93.00;;;;;;5101045;28;20168;-74
2022/04/23 10:27:18;;;;;;;8.25;7.45;;;16.60;92.20;;;;;;5102651;28;20051;-76
2022/04/23 10:29:45;;;;;;;16.05;7.10;;;16.60;92.10;;;;;;5105217;28;20028;-77
2022/04/23 10:32:10;;;;;;;7.72;6.75;;;16.70;92.00;;;;;;5112104;28;20050;-76
2022/04/23 10:34:37;;;;;;;13.63;7.20;;;16.80;91.80;;;;;;5111079;28;21341;-76
2022/04/23 10:37:27;;;;;;;7.63;6.53;;;16.90;91.80;;;;;;5094836;28;20059;-76
2022/04/23 10:39:53;;;;;;;6.78;6.07;;;17.20;90.40;;;;;;5112821;28;20103;-76
2022/04/23 10:42:23;;;;;;;8.57;6.32;;;17.30;90.70;;;;;;5112347;28;20110;-77
2022/04/23 10:44:50;;;;;;;11.15;6.68;;;17.40;89.40;;;;;;5112308;28;20076;-76
2022/04/23 10:47:34;;;;;;;14.07;7.28;;;17.50;89.20;;;;;;5113463;28;20485;-76
2022/04/23 10:50:23;;;;;;;11.65;7.85;;;17.50;85.30;;;;;;5093103;28;20070;-76
2022/04/23 10:52:50;;;;;;;13.55;6.60;;;17.30;87.00;;;;;;5104518;28;20048;-75
2022/04/23 10:55:16;;;;;;;12.00;7.20;;;17.30;86.50;;;;;;5111812;28;20044;-76
2022/04/23 10:57:54;;;;;;;8.88;7.00;;;17.30;87.50;;;;;;5112756;28;20049;-76
2022/04/23 11:00:22;;;;;;;13.07;6.75;;;17.40;86.70;;;;;;5113877;28;20559;-77
2022/04/23 11:02:55;;;;;;;12.15;7.75;;;17.40;85.00;;;;;;5113158;28;20036;-74
2022/04/23 11:13:55;;;;;;;9.65;6.93;;;17.80;84.80;;;;;;5112369;28;20056;-76
2022/04/23 11:16:25;;;;;;;10.98;7.07;;;17.80;83.60;;;;;;5113061;28;20070;-75
2022/04/23 11:18:55;;;;;;;7.47;6.60;;;17.80;82.60;;;;;;5112448;28;20035;-76
2022/04/23 11:21:24;;;;;;;13.18;6.28;;;17.80;81.00;;;;;;5113166;28;20039;-77
2022/04/23 11:23:51;;;;;;;10.93;6.95;;;17.80;81.80;;;;;;5095086;28;20055;-77
2022/04/23 11:26:18;;;;;;;8.15;6.60;;;18.00;82.10;;;;;;5116331;28;20447;-74
2022/04/23 11:28:46;;;;;;;8.48;5.75;;;18.00;80.00;;;;;;5117669;27;20118;-77
2022/04/23 11:31:16;;;;;;;8.18;5.72;;;18.00;78.00;;;;;;5116872;28;20135;-75
2022/04/23 11:34:00;;;;;;;8.02;5.75;;;18.00;78.60;;;;;;5116435;28;20042;-76
2022/04/23 11:36:28;;;;;;;13.95;7.15;;;18.00;77.50;;;;;;5097418;28;20122;-75
2022/04/23 11:38:55;;;;;;;13.77;6.88;;;18.00;79.40;;;;;;5098939;28;20553;-76
2022/04/23 11:41:36;;;;;;;7.97;6.03;;;18.10;79.70;;;;;;5099479;28;20478;-76
2022/04/23 11:44:12;;;;;;;11.18;5.78;;;18.20;75.80;;;;;;5116613;28;20038;-76
2022/04/23 11:46:56;;;;;;;6.78;5.80;;;18.20;75.80;;;;;;5117636;28;20043;-76
2022/04/23 11:49:30;;;;;;;13.15;6.20;;;18.30;74.60;;;;;;5114324;27;20495;-76
2022/04/23 11:52:07;;;;;;;22.50;5.93;;;18.20;75.20;;;;;;5094813;28;20048;-76
2022/04/23 11:54:44;;;;;;;11.80;6.53;;;18.20;74.20;;;;;;5097246;28;20123;-75
2022/04/23 11:57:11;;;;;;;14.70;5.90;;;18.10;73.10;;;;;;5116365;28;20051;-76
2022/04/23 11:59:40;;;;;;;13.88;6.25;;;18.20;74.40;;;;;;5116082;28;20055;-76
2022/04/23 12:02:21;;;;;;;7.78;5.68;;;18.30;73.60;;;;;;5117239;28;20044;-75
2022/04/23 12:04:48;;;;;;;11.25;4.90;;;18.30;71.40;;;;;;5115995;28;20043;-76
2022/04/23 12:07:14;;;;;;;10.15;5.53;;;18.30;70.10;;;;;;5098126;28;20058;-76
2022/04/23 12:09:44;;;;;;;9.35;5.40;;;18.30;69.40;;;;;;5115576;28;20036;-76
2022/04/23 12:12:10;;;;;;;8.90;5.55;;;18.30;69.20;;;;;;5114419;28;20054;-76
2022/04/23 12:14:46;;;;;;;11.55;6.20;;;18.30;69.00;;;;;;5116475;27;20461;-76
2022/04/23 12:17:29;;;;;;;7.90;5.53;;;18.30;67.40;;;;;;5115760;28;20379;-76
2022/04/23 12:19:57;;;;;;;13.32;5.32;;;18.20;68.10;;;;;;5113995;28;20077;-76
2022/04/23 12:22:32;;;;;;;20.70;6.18;;;18.30;68.60;;;;;;5098484;28;20079;-76
2022/04/23 12:25:18;;;;;;;10.05;5.93;;;18.40;67.50;;;;;;5114539;28;20051;-76
2022/04/23 12:42:10;;;;;;;8.68;5.18;;;18.60;65.50;;;;;;5115793;28;20056;-76
2022/04/23 12:44:46;;;;;;;9.38;5.15;;;18.50;66.20;;;;;;5113896;28;20051;-75
2022/04/23 12:47:28;;;;;;;6.70;5.68;;;18.50;64.80;;;;;;5115204;28;20046;-76
2022/04/23 12:49:56;;;;;;;9.52;5.53;;;18.50;65.50;;;;;;5094232;28;20500;-76
2022/04/23 12:52:25;;;;;;;13.70;6.18;;;18.60;65.60;;;;;;5095952;28;20056;-76
2022/04/23 12:55:10;;;;;;;7.22;5.20;;;18.50;64.50;;;;;;5115253;28;20528;-76
2022/04/23 12:57:36;;;;;;;12.35;5.20;;;18.70;65.60;;;;;;5115790;28;20104;-76
2022/04/23 13:00:03;;;;;;;10.02;5.03;;;18.70;65.50;;;;;;5116393;28;20394;-76
2022/04/23 13:02:36;;;;;;;7.55;4.43;;;18.80;65.10;;;;;;5115042;28;20040;-76
2022/04/23 13:05:07;;;;;;;7.82;5.50;;;18.80;63.40;;;;;;5115912;28;20032;-76
2022/04/23 13:10:18;;;;;;;8.35;5.22;;;18.80;63.30;;;;;;5113864;28;20047;-75
2022/04/23 13:12:44;;;;;;;7.55;4.30;;;18.70;61.80;;;;;;5115597;28;20044;-76
2022/04/23 13:15:11;;;;;;;13.15;4.90;;;18.70;62.50;;;;;;5115810;28;20040;-76
2022/04/23 13:17:38;;;;;;;8.35;4.35;;;18.70;62.50;;;;;;5113319;28;20502;-75
2022/04/23 13:20:08;;;;;;;11.43;5.22;;;18.60;60.90;;;;;;5115183;28;20469;-78
2022/04/23 13:22:35;;;;;;;5.10;4.30;;;18.60;61.10;;;;;;5115015;28;20047;-76
2022/04/23 13:25:02;;;;;;;9.02;4.70;;;18.70;61.90;;;;;;5115387;28;20122;-76
2022/04/23 13:27:29;;;;;;;7.93;4.35;;;18.70;62.00;;;;;;5095234;28;20051;-76
2022/04/23 13:29:55;;;;;;;10.70;4.50;;;18.80;62.30;;;;;;5102452;28;20104;-76
2022/04/23 13:32:21;;;;;;;9.00;4.55;;;18.80;61.80;;;;;;5114060;28;20571;-76
2022/04/23 13:34:47;;;;;;;9.32;4.65;;;18.80;62.40;;;;;;5114988;28;20121;-76
2022/04/23 13:37:13;;;;;;;9.57;4.72;;;19.00;62.20;;;;;;5114516;28;20086;-77